Time;durP1;ratioP1;P1;durP2;ratioP2;P2;SDS_P1;SDS_P2;PMS_P1;PMS_P2;Temp;Humidity;BMP_temperature;BMP_pressure;BME280_temperature;BME280_humidity;BME280_pressure;Samples;Min_cycle;Max_cycle;Signal;HPM_P1;HPM_P2
2022/05/25 00:00:58;;;;;;;11.15;6.43;;;12.20;99.90;;;;;;5036619;28;20064;-83
2022/05/25 00:03:24;;;;;;;11.35;6.22;;;12.20;99.90;;;;;;5052801;28;20549;-82
2022/05/25 00:05:50;;;;;;;10.40;6.47;;;12.30;99.90;;;;;;5036545;28;20033;-82
2022/05/25 00:08:16;;;;;;;12.18;6.15;;;12.30;99.90;;;;;;5031511;28;20087;-82
2022/05/25 00:10:42;;;;;;;12.65;6.55;;;12.30;99.90;;;;;;5023470;28;20079;-84
2022/05/25 00:13:08;;;;;;;11.20;7.30;;;12.30;99.90;;;;;;5041838;28;20033;-82
2022/05/25 00:15:35;;;;;;;10.82;6.57;;;12.30;99.90;;;;;;5039813;28;20057;-82
2022/05/25 00:18:01;;;;;;;12.60;6.78;;;12.30;99.90;;;;;;5042892;28;20075;-82
2022/05/25 00:20:26;;;;;;;12.90;7.13;;;12.20;99.90;;;;;;5041664;28;20037;-83
2022/05/25 00:22:54;;;;;;;15.90;6.88;;;12.30;99.90;;;;;;5037178;28;20519;-83
2022/05/25 00:25:22;;;;;;;10.68;6.15;;;12.10;99.90;;;;;;5035742;28;20060;-82
2022/05/25 00:27:49;;;;;;;14.50;7.28;;;12.10;99.90;;;;;;5029933;28;20042;-83
2022/05/25 00:30:16;;;;;;;12.30;6.53;;;12.10;99.90;;;;;;5036575;28;20041;-83
2022/05/25 00:32:42;;;;;;;11.10;5.63;;;12.10;99.90;;;;;;5029004;28;20057;-83
2022/05/25 00:35:12;;;;;;;14.20;7.78;;;12.00;99.90;;;;;;5026679;28;20032;-82
2022/05/25 00:37:39;;;;;;;12.02;7.45;;;12.00;99.90;;;;;;5027414;28;20496;-83
2022/05/25 00:40:08;;;;;;;13.50;6.72;;;12.10;99.90;;;;;;5031700;28;20519;-83
2022/05/25 00:42:36;;;;;;;17.55;7.18;;;12.00;99.90;;;;;;5043448;28;20036;-83
2022/05/25 00:45:04;;;;;;;13.95;6.78;;;12.10;99.90;;;;;;5038285;28;20563;-82
2022/05/25 00:47:32;;;;;;;11.43;7.38;;;12.00;99.90;;;;;;5041515;28;20068;-83
2022/05/25 00:49:58;;;;;;;13.15;7.55;;;12.00;99.90;;;;;;5032189;28;20091;-82
2022/05/25 00:52:26;;;;;;;13.27;7.30;;;12.00;99.90;;;;;;5056191;28;20475;-82
2022/05/25 00:54:58;;;;;;;13.85;6.88;;;12.00;99.90;;;;;;5031238;28;20037;-83
2022/05/25 00:57:49;;;;;;;15.13;6.80;;;12.00;99.90;;;;;;5047910;28;20033;-82
2022/05/25 01:00:19;;;;;;;12.18;8.10;;;11.90;99.90;;;;;;5045615;28;20041;-83
2022/05/25 01:02:51;;;;;;;12.95;7.25;;;11.70;99.90;;;;;;5026953;28;20053;-82
2022/05/25 01:05:21;;;;;;;12.18;6.65;;;11.70;99.90;;;;;;5031684;28;20611;-82
2022/05/25 01:07:59;;;;;;;12.32;7.25;;;11.80;99.90;;;;;;5029910;28;20045;-82
2022/05/25 01:10:50;;;;;;;15.15;7.57;;;11.80;99.90;;;;;;5046547;28;20040;-82
2022/05/25 01:13:31;;;;;;;10.88;6.93;;;11.80;99.90;;;;;;5039477;28;20052;-82
2022/05/25 01:16:21;;;;;;;13.73;8.38;;;11.90;99.90;;;;;;5033104;28;20060;-82
2022/05/25 01:19:04;;;;;;;14.00;7.78;;;11.90;99.90;;;;;;5050469;28;20036;-82
2022/05/25 01:21:39;;;;;;;13.77;6.95;;;11.90;99.90;;;;;;5039014;28;20055;-82
2022/05/25 01:24:52;;;;;;;15.40;8.27;;;11.90;99.90;;;;;;5034349;28;20485;-82
2022/05/25 01:27:41;;;;;;;11.02;7.07;;;11.80;99.90;;;;;;4931615;29;20050;-81
2022/05/25 01:30:35;;;;;;;12.65;7.28;;;11.80;99.90;;;;;;5045545;28;20029;-86
2022/05/25 01:33:33;;;;;;;12.43;6.70;;;11.80;99.90;;;;;;5031569;28;20037;-82
2022/05/25 01:36:25;;;;;;;16.35;7.38;;;11.90;99.90;;;;;;4994926;28;20138;-82
2022/05/25 01:39:05;;;;;;;13.25;6.57;;;11.70;99.90;;;;;;5008879;28;20194;-82
2022/05/25 01:41:39;;;;;;;19.27;8.10;;;11.80;99.90;;;;;;5042335;28;20527;-81
2022/05/25 01:44:09;;;;;;;17.10;7.65;;;11.80;99.90;;;;;;5038934;28;20082;-81
2022/05/25 01:46:39;;;;;;;13.50;7.47;;;11.80;99.90;;;;;;5036528;28;20149;-82
2022/05/25 01:49:10;;;;;;;16.25;7.82;;;11.70;99.90;;;;;;5034461;28;20025;-81
2022/05/25 01:51:40;;;;;;;15.35;7.25;;;11.80;99.90;;;;;;5035940;28;20059;-81
2022/05/25 01:54:09;;;;;;;15.30;6.55;;;11.70;99.90;;;;;;5028134;28;20112;-82
2022/05/25 01:56:37;;;;;;;16.83;8.02;;;11.70;99.90;;;;;;5037231;28;20036;-82
2022/05/25 01:59:07;;;;;;;10.38;6.38;;;11.70;99.90;;;;;;5035161;28;20035;-82
2022/05/25 02:01:33;;;;;;;8.18;5.35;;;11.80;99.90;;;;;;5032154;28;20488;-82
2022/05/25 02:06:42;;;;;;;9.10;5.68;;;11.60;99.90;;;;;;5032407;28;20057;-81
2022/05/25 02:09:26;;;;;;;9.77;4.88;;;11.60;99.90;;;;;;5032549;28;20033;-81
2022/05/25 02:12:36;;;;;;;7.55;4.30;;;11.60;99.90;;;;;;5041063;28;20471;-83
2022/05/25 02:15:05;;;;;;;8.18;3.83;;;11.50;99.90;;;;;;5031286;28;20554;-81
2022/05/25 02:18:08;;;;;;;7.05;3.92;;;11.30;99.90;;;;;;5036505;28;20515;-82
2022/05/25 02:20:49;;;;;;;7.47;3.90;;;11.10;99.90;;;;;;5032451;28;20029;-85
2022/05/25 02:23:19;;;;;;;;;;;11.10;99.90;;;;;;5050575;28;20029;-84
2022/05/25 02:26:00;;;;;;;7.20;3.65;;;11.00;99.90;;;;;;5036206;28;19944;-84
2022/05/25 02:28:33;;;;;;;8.00;3.45;;;11.10;99.90;;;;;;5029302;28;20037;-85
2022/05/25 02:31:01;;;;;;;5.38;3.72;;;10.90;99.90;;;;;;5051305;28;20492;-85
2022/05/25 02:33:39;;;;;;;5.15;2.97;;;11.00;99.90;;;;;;5047865;28;20029;-84
2022/05/25 02:36:08;;;;;;;11.38;3.00;;;10.90;99.90;;;;;;5030950;28;20025;-86
2022/05/25 02:38:37;;;;;;;4.55;2.83;;;10.80;99.90;;;;;;5055079;28;20535;-84
2022/05/25 02:41:13;;;;;;;7.50;2.85;;;10.80;99.90;;;;;;5039998;28;20029;-82
2022/05/25 02:43:40;;;;;;;5.80;2.67;;;10.80;99.90;;;;;;5032258;28;20025;-85
2022/05/25 02:46:08;;;;;;;4.28;2.80;;;10.70;99.90;;;;;;5036593;28;20029;-87
2022/05/25 02:48:37;;;;;;;4.85;2.55;;;10.70;99.90;;;;;;5035513;28;20492;-85
2022/05/25 02:51:03;;;;;;;4.22;2.40;;;10.70;99.90;;;;;;5035616;28;20035;-84
2022/05/25 02:53:29;;;;;;;6.38;3.17;;;10.60;99.90;;;;;;5038232;28;20040;-85
2022/05/25 02:55:54;;;;;;;5.53;3.10;;;10.70;99.90;;;;;;5032884;28;20144;-83
2022/05/25 02:58:20;;;;;;;5.13;3.13;;;10.70;99.90;;;;;;5037347;28;20037;-84
2022/05/25 03:00:46;;;;;;;5.57;2.85;;;10.80;99.90;;;;;;5033355;28;20033;-83
2022/05/25 03:03:12;;;;;;;4.32;2.10;;;10.70;99.90;;;;;;5034783;28;20431;-83
2022/05/25 03:05:40;;;;;;;6.53;3.25;;;10.70;99.90;;;;;;5032895;28;20533;-84
2022/05/25 03:08:06;;;;;;;4.28;2.47;;;10.70;99.90;;;;;;5050987;28;20129;-84
2022/05/25 03:10:32;;;;;;;2.92;2.20;;;10.70;99.90;;;;;;5043081;28;20037;-83
2022/05/25 03:12:57;;;;;;;3.72;2.65;;;10.70;99.90;;;;;;5045591;28;20033;-83
2022/05/25 03:15:23;;;;;;;4.30;2.50;;;10.60;99.90;;;;;;5042147;28;20060;-83
2022/05/25 03:17:52;;;;;;;3.13;2.38;;;10.70;99.90;;;;;;5043594;28;20028;-83
2022/05/25 03:20:18;;;;;;;3.97;2.70;;;10.80;99.90;;;;;;5023897;28;20037;-86
2022/05/25 03:22:44;;;;;;;4.40;2.60;;;10.80;99.90;;;;;;5034155;28;20480;-83
2022/05/25 03:25:13;;;;;;;6.05;2.80;;;10.80;99.90;;;;;;5033730;28;20104;-81
2022/05/25 03:27:39;;;;;;;4.53;2.67;;;10.90;99.90;;;;;;5034971;28;20029;-82
2022/05/25 03:30:11;;;;;;;6.25;2.80;;;10.90;99.90;;;;;;5056304;28;20120;-82
2022/05/25 03:32:37;;;;;;;3.78;2.38;;;11.00;99.90;;;;;;5033105;28;20037;-82
2022/05/25 03:35:03;;;;;;;4.00;2.55;;;10.90;99.90;;;;;;5011745;28;20040;-82
2022/05/25 03:37:29;;;;;;;5.25;2.60;;;10.90;99.90;;;;;;5041306;28;20033;-82
2022/05/25 03:39:54;;;;;;;4.75;2.40;;;10.90;99.90;;;;;;5045808;28;20075;-82
2022/05/25 03:42:22;;;;;;;3.30;2.60;;;10.90;99.90;;;;;;5038433;28;20025;-83
2022/05/25 03:44:48;;;;;;;3.75;2.75;;;10.90;99.90;;;;;;5038014;28;20072;-82
2022/05/25 03:47:14;;;;;;;5.00;2.58;;;10.90;99.90;;;;;;5039818;28;20049;-82
2022/05/25 03:49:40;;;;;;;5.85;2.75;;;11.00;99.90;;;;;;5039059;28;20084;-81
2022/05/25 03:52:06;;;;;;;4.80;3.53;;;10.90;99.90;;;;;;5037831;28;20055;-82
2022/05/25 03:54:32;;;;;;;8.80;3.03;;;10.80;99.90;;;;;;5035477;28;20076;-83
2022/05/25 03:56:58;;;;;;;6.07;2.72;;;10.70;99.90;;;;;;5052636;28;20042;-82
2022/05/25 03:59:24;;;;;;;6.90;3.75;;;10.70;99.90;;;;;;5017065;28;20036;-82
2022/05/25 04:01:50;;;;;;;6.10;2.97;;;10.70;99.90;;;;;;5034659;28;20046;-82
2022/05/25 04:04:16;;;;;;;10.13;3.05;;;10.70;99.90;;;;;;5033007;28;20025;-82
2022/05/25 04:06:42;;;;;;;5.53;3.20;;;10.80;99.90;;;;;;5034481;28;20519;-83
2022/05/25 04:09:09;;;;;;;4.60;2.80;;;10.70;99.90;;;;;;5042077;28;20026;-82
2022/05/25 04:11:35;;;;;;;5.65;3.00;;;10.70;99.90;;;;;;5039529;28;20170;-83
2022/05/25 04:14:01;;;;;;;5.20;2.80;;;10.80;99.90;;;;;;5042042;28;20030;-82
2022/05/25 04:16:27;;;;;;;3.95;3.03;;;10.90;99.90;;;;;;5043123;28;20033;-85
2022/05/25 04:18:53;;;;;;;6.10;2.90;;;10.90;99.90;;;;;;5040618;28;20026;-82
2022/05/25 04:21:18;;;;;;;3.97;3.05;;;10.70;99.90;;;;;;5040053;28;20025;-82
2022/05/25 04:23:44;;;;;;;7.30;3.47;;;11.00;99.90;;;;;;5038070;28;20048;-83
2022/05/25 04:26:10;;;;;;;4.40;2.45;;;10.80;99.90;;;;;;5033990;28;20036;-83
2022/05/25 04:28:37;;;;;;;4.15;2.97;;;10.80;99.90;;;;;;5035790;28;20155;-83
2022/05/25 04:31:03;;;;;;;4.20;3.10;;;10.90;99.90;;;;;;5018139;28;20037;-83
2022/05/25 04:33:29;;;;;;;7.05;3.90;;;11.00;99.90;;;;;;5033224;28;20038;-82
2022/05/25 04:35:56;;;;;;;5.50;3.80;;;11.10;99.90;;;;;;5030030;28;20582;-82
2022/05/25 04:38:21;;;;;;;4.80;3.13;;;11.00;99.90;;;;;;5057003;28;20037;-83
2022/05/25 04:40:47;;;;;;;6.40;3.47;;;11.00;99.90;;;;;;5037166;28;20039;-83
2022/05/25 04:43:19;;;;;;;5.07;3.40;;;10.90;99.90;;;;;;5023879;28;20400;-82
2022/05/25 04:45:47;;;;;;;7.13;3.70;;;11.00;99.90;;;;;;5037712;28;20033;-81
2022/05/25 04:48:14;;;;;;;5.07;3.40;;;11.00;99.90;;;;;;5028998;28;20473;-82
2022/05/25 04:50:42;;;;;;;7.35;4.60;;;10.90;99.90;;;;;;5032033;28;20547;-84
2022/05/25 04:53:10;;;;;;;7.57;3.80;;;11.00;99.90;;;;;;5040294;28;20037;-82
2022/05/25 04:58:24;;;;;;;6.95;3.97;;;11.00;99.90;;;;;;5032127;28;20840;-84
2022/05/25 05:00:50;;;;;;;9.35;4.65;;;10.90;99.90;;;;;;5044813;28;20069;-82
2022/05/25 05:03:17;;;;;;;7.18;3.58;;;10.90;99.90;;;;;;5029071;28;20114;-82
2022/05/25 05:05:43;;;;;;;8.50;3.80;;;10.90;99.90;;;;;;5044436;28;20032;-83
2022/05/25 05:08:09;;;;;;;8.05;3.72;;;10.80;99.90;;;;;;5042828;28;20033;-82
2022/05/25 05:10:35;;;;;;;7.40;3.83;;;10.80;99.90;;;;;;5036482;28;20060;-83
2022/05/25 05:13:04;;;;;;;9.65;5.00;;;10.80;99.90;;;;;;5044122;28;20037;-83
2022/05/25 05:15:35;;;;;;;6.57;3.97;;;10.70;99.90;;;;;;5025509;28;20034;-83
2022/05/25 05:18:01;;;;;;;;;;;10.80;99.90;;;;;;5041574;28;20038;-84
2022/05/25 05:20:27;;;;;;;7.03;3.58;;;10.90;99.90;;;;;;5034394;28;20019;-83
2022/05/25 05:22:53;;;;;;;5.55;3.38;;;10.90;99.90;;;;;;5036292;28;20505;-83
2022/05/25 05:25:19;;;;;;;5.32;2.58;;;10.90;99.90;;;;;;5036825;28;20072;-83
2022/05/25 05:27:45;;;;;;;3.97;2.67;;;10.90;99.90;;;;;;5033419;28;20021;-85
2022/05/25 05:30:14;;;;;;;5.28;3.25;;;11.00;99.90;;;;;;5028681;28;20033;-82
2022/05/25 05:32:39;;;;;;;3.85;2.75;;;11.00;99.90;;;;;;5027940;28;20523;-88
2022/05/25 05:35:06;;;;;;;5.03;2.35;;;11.20;99.90;;;;;;5027326;28;20033;-87
2022/05/25 05:37:36;;;;;;;5.55;2.67;;;11.20;99.90;;;;;;5032287;28;20087;-87
2022/05/25 05:40:08;;;;;;;3.80;2.38;;;11.30;99.90;;;;;;5036050;28;20030;-86
2022/05/25 05:42:38;;;;;;;6.72;2.72;;;11.50;99.90;;;;;;5040110;28;20033;-87
2022/05/25 05:45:16;;;;;;;5.50;3.05;;;11.50;99.90;;;;;;5039957;28;20030;-87
2022/05/25 05:48:07;;;;;;;6.65;3.75;;;11.50;99.90;;;;;;5038751;28;20029;-88
2022/05/25 05:50:37;;;;;;;7.32;3.30;;;11.50;99.90;;;;;;5032038;28;20045;-88
2022/05/25 05:53:04;;;;;;;8.57;3.20;;;11.70;99.90;;;;;;5031425;28;20034;-89
2022/05/25 05:55:30;;;;;;;6.18;3.40;;;11.90;99.90;;;;;;5037224;28;20033;-88
2022/05/25 05:57:55;;;;;;;7.63;3.90;;;12.10;99.90;;;;;;5031398;28;20042;-87
2022/05/25 06:00:21;;;;;;;4.88;3.08;;;12.10;99.90;;;;;;5032077;28;20033;-85
2022/05/25 06:02:47;;;;;;;4.53;2.53;;;12.10;99.90;;;;;;5030476;28;20044;-83
2022/05/25 06:05:12;;;;;;;5.35;3.33;;;12.40;99.90;;;;;;5028671;28;20030;-83
2022/05/25 06:07:39;;;;;;;4.18;2.83;;;12.60;99.90;;;;;;5040626;28;20087;-83
2022/05/25 06:10:06;;;;;;;5.28;3.53;;;12.70;99.90;;;;;;5038051;28;20033;-83
2022/05/25 06:12:32;;;;;;;6.53;3.33;;;12.50;99.90;;;;;;5041431;28;20033;-83
2022/05/25 06:14:58;;;;;;;3.72;2.22;;;12.50;99.90;;;;;;5039593;28;20099;-82
2022/05/25 06:20:09;;;;;;;7.60;2.45;;;12.60;99.90;;;;;;5036144;28;20416;-82
2022/05/25 06:22:35;;;;;;;5.30;2.47;;;12.40;99.90;;;;;;5029142;28;20043;-82
2022/05/25 06:25:02;;;;;;;4.45;2.70;;;12.50;99.90;;;;;;5035438;28;20100;-82
2022/05/25 06:27:28;;;;;;;3.75;2.35;;;12.30;99.90;;;;;;5029349;28;20025;-82
2022/05/25 06:29:54;;;;;;;3.75;2.47;;;12.10;99.90;;;;;;5031983;28;20139;-82
2022/05/25 06:32:23;;;;;;;4.32;2.20;;;12.00;99.90;;;;;;5029346;28;20033;-85
2022/05/25 06:34:49;;;;;;;4.72;2.60;;;12.10;99.90;;;;;;5028248;28;20040;-83
2022/05/25 06:37:18;;;;;;;7.00;2.65;;;12.20;99.90;;;;;;5026803;28;20029;-82
2022/05/25 06:39:44;;;;;;;4.28;3.13;;;12.10;99.90;;;;;;5042013;28;20480;-82
2022/05/25 06:42:10;;;;;;;5.28;2.70;;;12.20;99.90;;;;;;5027606;28;20040;-82
2022/05/25 06:44:36;;;;;;;5.10;3.50;;;12.20;99.90;;;;;;5023038;28;20432;-83
2022/05/25 06:47:03;;;;;;;6.03;3.80;;;12.30;99.90;;;;;;5039020;28;20565;-82
2022/05/25 06:49:29;;;;;;;5.68;2.90;;;12.30;99.90;;;;;;5033720;28;20040;-82
2022/05/25 06:51:55;;;;;;;4.32;2.83;;;12.50;99.90;;;;;;5026805;28;20044;-82
2022/05/25 06:54:21;;;;;;;6.32;3.38;;;12.40;99.90;;;;;;5034278;28;20548;-82
2022/05/25 06:56:47;;;;;;;5.25;3.05;;;12.60;99.90;;;;;;5022101;28;20532;-83
2022/05/25 06:59:13;;;;;;;5.80;2.95;;;12.80;99.90;;;;;;5034944;28;20748;-82
2022/05/25 07:01:40;;;;;;;4.45;2.83;;;12.60;99.90;;;;;;5028270;28;20061;-82
2022/05/25 07:04:07;;;;;;;4.25;2.22;;;12.80;99.90;;;;;;5029484;28;20088;-81
2022/05/25 07:06:36;;;;;;;3.70;2.60;;;12.90;99.90;;;;;;5040307;28;20075;-82
2022/05/25 07:09:03;;;;;;;3.33;2.40;;;13.10;99.90;;;;;;5049726;28;20025;-82
2022/05/25 07:11:29;;;;;;;3.67;2.47;;;13.30;99.90;;;;;;5038093;28;20579;-82
2022/05/25 07:13:55;;;;;;;4.13;2.70;;;13.30;99.90;;;;;;5042841;28;20110;-82
2022/05/25 07:16:21;;;;;;;2.92;2.42;;;13.30;99.90;;;;;;5037577;28;20037;-81
2022/05/25 07:18:48;;;;;;;3.80;2.45;;;13.40;99.90;;;;;;5040633;28;20128;-82
2022/05/25 07:21:17;;;;;;;5.00;2.42;;;13.40;99.90;;;;;;5037683;28;20032;-81
2022/05/25 07:23:44;;;;;;;2.53;1.98;;;13.60;99.90;;;;;;5037153;28;20021;-82
2022/05/25 07:26:11;;;;;;;2.90;2.08;;;13.90;99.90;;;;;;5047302;28;20075;-80
2022/05/25 07:28:37;;;;;;;3.42;2.10;;;14.10;99.90;;;;;;5029825;28;20072;-83
2022/05/25 07:31:26;;;;;;;3.40;1.88;;;14.10;99.90;;;;;;5027335;28;20029;-82
2022/05/25 07:34:06;;;;;;;2.47;2.10;;;14.00;99.90;;;;;;5023516;28;20077;-81
2022/05/25 07:36:34;;;;;;;4.10;1.70;;;14.20;99.90;;;;;;5048831;28;20045;-82
2022/05/25 07:39:07;;;;;;;2.05;1.52;;;14.40;99.90;;;;;;5044832;28;20171;-81
2022/05/25 07:41:36;;;;;;;4.35;1.63;;;14.30;99.90;;;;;;5040102;28;20108;-81
2022/05/25 07:44:02;;;;;;;2.67;1.83;;;14.50;99.90;;;;;;5022726;28;20488;-82
2022/05/25 07:46:30;;;;;;;3.72;2.00;;;14.10;99.90;;;;;;5030044;28;20042;-81
2022/05/25 07:48:55;;;;;;;2.28;1.73;;;14.40;99.90;;;;;;5025965;28;20026;-81
2022/05/25 07:51:23;;;;;;;2.72;1.52;;;14.20;99.90;;;;;;5027654;28;20060;-82
2022/05/25 07:53:59;;;;;;;3.22;2.35;;;14.10;99.90;;;;;;5031840;28;20033;-82
2022/05/25 07:56:29;;;;;;;3.88;2.15;;;14.00;99.90;;;;;;5026803;28;20021;-81
2022/05/25 07:58:59;;;;;;;2.97;2.03;;;13.80;99.90;;;;;;5022343;28;20017;-81
2022/05/25 08:06:59;;;;;;;3.45;1.90;;;13.70;99.90;;;;;;5036344;28;20104;-87
2022/05/25 08:09:26;;;;;;;3.08;1.83;;;13.90;99.90;;;;;;5038482;28;20041;-82
2022/05/25 08:11:52;;;;;;;2.92;1.80;;;13.90;99.90;;;;;;5041487;28;20068;-82
2022/05/25 08:14:18;;;;;;;2.50;1.73;;;14.20;99.90;;;;;;5038478;28;20052;-81
2022/05/25 08:16:43;;;;;;;3.38;2.05;;;14.10;99.90;;;;;;5036613;28;20535;-81
2022/05/25 08:19:09;;;;;;;4.07;2.20;;;13.90;99.90;;;;;;5042590;28;20082;-81
2022/05/25 08:21:35;;;;;;;1.70;1.60;;;14.30;99.90;;;;;;5038555;28;20420;-81
2022/05/25 08:24:00;;;;;;;6.03;1.98;;;14.60;99.90;;;;;;5033828;28;20200;-82
2022/05/25 08:26:26;;;;;;;3.67;1.83;;;14.60;99.90;;;;;;5032743;28;20053;-81
2022/05/25 08:28:51;;;;;;;3.10;1.60;;;14.70;99.90;;;;;;5035790;28;20108;-81
2022/05/25 08:31:17;;;;;;;2.22;1.55;;;14.70;99.90;;;;;;5030231;28;20037;-82
2022/05/25 08:33:43;;;;;;;2.42;1.77;;;14.60;99.90;;;;;;5029232;28;20041;-82
2022/05/25 08:36:10;;;;;;;2.13;1.70;;;14.60;99.90;;;;;;5048692;28;20029;-81
2022/05/25 08:38:35;;;;;;;6.85;2.10;;;14.70;99.90;;;;;;5046347;28;20107;-81
2022/05/25 08:41:01;;;;;;;2.60;2.10;;;14.80;99.90;;;;;;5041010;28;20489;-81
2022/05/25 08:43:38;;;;;;;2.72;1.90;;;15.00;99.90;;;;;;5040423;28;20048;-83
2022/05/25 08:46:06;;;;;;;10.50;2.03;;;14.90;99.90;;;;;;5039299;28;20491;-82
2022/05/25 08:48:34;;;;;;;2.33;1.60;;;14.90;99.90;;;;;;5040199;28;20575;-81
2022/05/25 08:51:07;;;;;;;2.22;1.77;;;15.10;99.90;;;;;;5037358;28;20056;-81
2022/05/25 08:53:34;;;;;;;2.45;1.73;;;14.90;99.90;;;;;;5030005;28;20030;-82
2022/05/25 08:56:19;;;;;;;4.28;1.90;;;15.40;99.90;;;;;;5050729;28;20032;-81
2022/05/25 08:58:49;;;;;;;2.20;1.85;;;15.30;99.90;;;;;;5032291;28;20025;-81
2022/05/25 09:01:20;;;;;;;;;;;15.30;99.90;;;;;;5026430;28;20497;-82
2022/05/25 09:03:51;;;;;;;;;;;15.30;99.90;;;;;;5027883;28;19921;-82
2022/05/25 09:06:43;;;;;;;1.73;1.55;;;15.20;99.90;;;;;;5033047;28;19915;-81
2022/05/25 09:09:19;;;;;;;5.47;1.88;;;16.00;99.90;;;;;;5039138;28;20037;-81
2022/05/25 09:12:20;;;;;;;2.28;1.67;;;16.00;99.90;;;;;;5035171;28;20039;-81
2022/05/25 09:15:00;;;;;;;1.50;1.40;;;15.70;99.90;;;;;;5040409;28;20144;-82
2022/05/25 09:17:37;;;;;;;3.53;1.48;;;15.90;99.90;;;;;;5036616;28;20021;-82
2022/05/25 09:20:04;;;;;;;3.50;1.75;;;16.50;99.90;;;;;;5031741;28;20048;-82
2022/05/25 09:22:33;;;;;;;1.77;1.38;;;16.50;96.30;;;;;;5051667;28;20060;-81
2022/05/25 09:25:03;;;;;;;2.03;1.30;;;16.20;99.90;;;;;;5034411;28;20025;-81
2022/05/25 09:27:41;;;;;;;2.33;1.50;;;16.60;99.90;;;;;;5031967;28;20060;-82
2022/05/25 09:30:08;;;;;;;2.65;1.58;;;16.60;99.90;;;;;;5029930;28;20436;-82
2022/05/25 09:32:45;;;;;;;5.75;1.50;;;16.10;99.90;;;;;;5011674;28;20068;-80
2022/05/25 09:35:25;;;;;;;2.58;1.55;;;16.20;93.70;;;;;;5035231;28;20033;-81
2022/05/25 09:38:12;;;;;;;1.85;1.63;;;16.10;95.50;;;;;;5039739;28;20037;-82
2022/05/25 09:40:50;;;;;;;2.88;1.73;;;16.30;92.30;;;;;;5039970;28;20025;-81
2022/05/25 09:43:22;;;;;;;3.10;1.80;;;16.40;91.80;;;;;;5037363;28;20025;-82
2022/05/25 09:45:53;;;;;;;3.50;1.70;;;16.20;92.60;;;;;;5034245;28;20029;-81
2022/05/25 09:48:24;;;;;;;2.63;1.90;;;16.20;90.60;;;;;;5033242;28;20036;-81
2022/05/25 09:51:12;;;;;;;2.53;1.70;;;16.10;91.00;;;;;;5035168;28;20163;-82
2022/05/25 09:53:50;;;;;;;2.38;1.55;;;16.40;99.10;;;;;;5032925;28;20073;-81
2022/05/25 09:56:35;;;;;;;6.90;1.83;;;16.50;93.90;;;;;;5029245;28;20036;-81
2022/05/25 09:59:07;;;;;;;2.65;1.80;;;16.10;99.70;;;;;;5030934;28;20088;-81
2022/05/25 10:01:48;;;;;;;2.85;1.90;;;15.80;99.90;;;;;;5044120;28;20128;-81
2022/05/25 10:04:35;;;;;;;2.83;2.08;;;16.10;95.60;;;;;;5027439;28;20033;-81
2022/05/25 10:07:12;;;;;;;4.20;1.67;;;16.30;97.90;;;;;;5037483;28;20044;-80
2022/05/25 10:09:46;;;;;;;1.73;1.45;;;16.40;94.30;;;;;;5059075;28;20048;-82
2022/05/25 10:12:43;;;;;;;2.05;1.30;;;16.60;91.50;;;;;;5037005;28;20025;-81
2022/05/25 10:15:26;;;;;;;3.53;1.65;;;17.20;96.30;;;;;;5029277;28;20048;-83
2022/05/25 10:17:52;;;;;;;2.20;1.55;;;16.80;89.20;;;;;;5035902;28;20029;-81
2022/05/25 10:20:30;;;;;;;1.63;1.20;;;17.00;75.50;;;;;;5048426;28;20033;-81
2022/05/25 10:23:22;;;;;;;3.25;1.85;;;16.90;73.90;;;;;;5048487;28;20033;-82
2022/05/25 10:26:07;;;;;;;4.43;1.35;;;17.30;76.30;;;;;;5027721;28;20073;-80
2022/05/25 10:28:45;;;;;;;1.70;1.42;;;17.60;85.60;;;;;;5033947;28;20032;-82
2022/05/25 10:37:07;;;;;;;1.77;1.50;;;18.00;79.80;;;;;;5030860;28;20045;-82
2022/05/25 10:39:58;;;;;;;3.72;1.60;;;18.10;91.90;;;;;;5041003;28;20030;-83
2022/05/25 10:42:31;;;;;;;;;;;18.30;73.90;;;;;;5036688;28;20041;-81
2022/05/25 10:45:00;;;;;;;2.55;1.90;;;18.80;79.60;;;;;;5039650;28;19913;-82
2022/05/25 10:47:44;;;;;;;1.33;1.20;;;19.40;83.20;;;;;;5035440;28;20100;-81
2022/05/25 10:50:16;;;;;;;3.15;1.67;;;19.70;71.40;;;;;;5038482;28;20227;-82
2022/05/25 10:52:48;;;;;;;4.38;1.55;;;20.00;64.60;;;;;;5034011;28;20025;-82
2022/05/25 10:55:14;;;;;;;2.25;1.30;;;19.80;62.90;;;;;;5032983;28;20036;-81
2022/05/25 10:58:22;;;;;;;4.65;1.83;;;19.40;62.30;;;;;;5031102;28;20045;-81
2022/05/25 11:01:03;;;;;;;2.50;1.40;;;19.60;57.90;;;;;;5026443;28;20052;-77
2022/05/25 11:03:59;;;;;;;2.55;1.45;;;20.40;61.30;;;;;;5026107;28;20025;-76
2022/05/25 11:06:31;;;;;;;1.55;1.13;;;21.10;57.10;;;;;;5037928;28;20025;-77
2022/05/25 11:09:25;;;;;;;7.38;1.50;;;21.10;59.70;;;;;;5043369;28;20081;-75
2022/05/25 11:12:19;;;;;;;1.75;1.20;;;21.90;56.00;;;;;;5031987;28;20055;-76
2022/05/25 11:15:13;;;;;;;2.65;1.45;;;21.40;48.20;;;;;;5030841;28;20022;-75
2022/05/25 11:18:06;;;;;;;3.47;1.30;;;21.50;47.40;;;;;;5038991;28;20030;-75
2022/05/25 11:20:57;;;;;;;1.63;1.42;;;21.80;50.00;;;;;;5037444;28;20021;-75
2022/05/25 11:23:31;;;;;;;1.73;1.45;;;22.40;47.40;;;;;;5036435;28;20155;-76
2022/05/25 11:26:31;;;;;;;3.08;1.60;;;22.70;49.70;;;;;;5032604;28;20500;-80
2022/05/25 11:29:14;;;;;;;1.90;1.20;;;22.20;45.40;;;;;;5033243;28;20060;-76
2022/05/25 11:32:00;;;;;;;2.58;1.50;;;23.10;43.80;;;;;;5047834;28;20037;-75
2022/05/25 11:34:45;;;;;;;1.65;1.23;;;22.10;46.30;;;;;;5030315;28;20021;-76
2022/05/25 11:37:16;;;;;;;3.03;1.30;;;22.80;49.80;;;;;;5035400;28;20443;-75
2022/05/25 11:39:59;;;;;;;3.28;1.50;;;22.80;48.10;;;;;;5029428;28;20407;-75
2022/05/25 11:42:48;;;;;;;2.13;1.33;;;23.60;43.50;;;;;;5033400;28;20055;-76
2022/05/25 11:45:32;;;;;;;3.08;1.67;;;23.80;45.40;;;;;;5032301;28;20027;-75
2022/05/25 11:48:31;;;;;;;1.70;1.40;;;23.50;40.70;;;;;;5032820;28;20481;-76
2022/05/25 11:51:18;;;;;;;3.47;1.40;;;23.90;47.10;;;;;;5036738;28;20052;-78
2022/05/25 11:54:01;;;;;;;2.53;1.40;;;23.80;41.50;;;;;;5037387;28;20048;-76
2022/05/25 11:56:48;;;;;;;2.65;1.42;;;24.80;40.00;;;;;;5028895;28;20147;-77
2022/05/25 11:59:44;;;;;;;1.85;1.35;;;24.30;41.20;;;;;;5029575;28;20047;-75
2022/05/25 12:02:39;;;;;;;1.45;1.35;;;24.20;39.80;;;;;;5046185;28;20037;-76
2022/05/25 12:05:43;;;;;;;2.90;1.60;;;24.50;46.30;;;;;;5037575;28;20089;-77
2022/05/25 12:08:08;;;;;;;2.40;1.65;;;26.40;40.40;;;;;;4970743;28;20097;-76
2022/05/25 12:10:40;;;;;;;1.92;1.40;;;26.90;40.20;;;;;;5016613;28;20433;-77
2022/05/25 12:13:12;;;;;;;4.03;2.25;;;25.90;35.30;;;;;;5036139;28;20033;-76
2022/05/25 12:15:41;;;;;;;1.92;1.70;;;26.00;37.10;;;;;;5046672;28;20370;-77
2022/05/25 12:18:09;;;;;;;2.10;1.40;;;25.70;37.40;;;;;;5038668;28;20028;-76
2022/05/25 12:20:50;;;;;;;2.92;1.50;;;26.90;38.40;;;;;;5038901;28;20021;-76
2022/05/25 12:23:21;;;;;;;3.67;1.67;;;27.70;37.00;;;;;;5035527;28;20409;-76
2022/05/25 12:25:57;;;;;;;3.28;1.60;;;26.60;41.00;;;;;;5032547;28;20021;-76
2022/05/25 12:28:29;;;;;;;2.20;1.65;;;26.50;35.10;;;;;;5028830;28;20116;-77
2022/05/25 12:31:01;;;;;;;6.07;1.88;;;28.20;35.40;;;;;;5027519;28;20041;-76
2022/05/25 12:33:28;;;;;;;2.45;1.80;;;26.90;33.20;;;;;;5031108;28;20031;-76
2022/05/25 12:35:54;;;;;;;5.22;1.70;;;27.50;34.60;;;;;;5035473;28;20125;-76
2022/05/25 12:38:22;;;;;;;2.47;1.77;;;27.90;37.40;;;;;;5036538;28;20083;-76
2022/05/25 12:40:49;;;;;;;3.22;2.08;;;28.60;34.30;;;;;;5041597;28;20031;-77
2022/05/25 12:43:39;;;;;;;2.15;1.92;;;28.40;32.50;;;;;;5042260;28;20052;-75
2022/05/25 12:48:57;;;;;;;3.13;1.83;;;25.30;36.10;;;;;;5030842;28;20043;-76
2022/05/25 12:51:38;;;;;;;3.13;1.83;;;25.40;40.60;;;;;;5031649;28;20500;-75
2022/05/25 12:54:18;;;;;;;2.47;1.80;;;25.80;41.50;;;;;;5034820;28;20049;-76
2022/05/25 12:56:44;;;;;;;3.42;2.20;;;26.20;36.40;;;;;;5033216;28;20503;-76
2022/05/25 12:59:30;;;;;;;3.25;1.95;;;27.10;34.20;;;;;;5031628;28;20655;-76
2022/05/25 13:02:13;;;;;;;5.75;2.10;;;27.50;37.10;;;;;;5031360;28;20037;-76
2022/05/25 13:04:51;;;;;;;3.63;1.88;;;28.40;38.90;;;;;;5039080;28;20052;-77
2022/05/25 13:07:36;;;;;;;5.10;2.30;;;28.70;37.40;;;;;;5033262;28;20068;-76
2022/05/25 13:10:09;;;;;;;3.67;2.35;;;27.50;37.40;;;;;;5036990;28;20028;-78
2022/05/25 13:12:42;;;;;;;3.55;2.20;;;27.00;35.00;;;;;;5041096;28;20033;-79
2022/05/25 13:15:17;;;;;;;2.88;2.00;;;27.00;35.90;;;;;;5036353;28;20025;-77
2022/05/25 13:17:48;;;;;;;5.40;2.53;;;27.80;36.50;;;;;;5036655;28;20025;-76
2022/05/25 13:20:30;;;;;;;2.45;2.00;;;28.10;32.80;;;;;;5039440;28;20067;-76
2022/05/25 13:22:58;;;;;;;3.30;2.30;;;28.20;37.60;;;;;;5037731;28;20037;-75
2022/05/25 13:25:33;;;;;;;5.60;2.40;;;28.90;30.60;;;;;;5032638;28;20034;-76
2022/05/25 13:28:12;;;;;;;2.72;2.17;;;28.50;32.70;;;;;;5028129;28;20033;-76
2022/05/25 13:31:07;;;;;;;4.90;2.50;;;28.00;34.60;;;;;;5044354;28;20079;-76
2022/05/25 13:33:40;;;;;;;4.97;2.63;;;28.30;36.40;;;;;;5047582;28;20029;-75
2022/05/25 13:36:07;;;;;;;4.75;2.40;;;29.00;34.70;;;;;;5039934;28;20056;-75